Time;durP1;ratioP1;P1;durP2;ratioP2;P2;SDS_P1;SDS_P2;PMS_P1;PMS_P2;Temp;Humidity;BMP_temperature;BMP_pressure;BME280_temperature;BME280_humidity;BME280_pressure;Samples;Min_cycle;Max_cycle;Signal;HPM_P1;HPM_P2
2022/02/25 00:00:25;;;;;;;113.00;92.18;;;;;;;-2.66;100.00;101749.47;5026731;28;20076;-79
2022/02/25 00:02:51;;;;;;;114.50;96.18;;;;;;;-2.64;100.00;101752.78;5025528;28;20127;-80
2022/02/25 00:05:18;;;;;;;133.38;101.72;;;;;;;-2.46;100.00;101743.00;5033805;28;20425;-80
2022/02/25 00:07:45;;;;;;;132.85;101.35;;;;;;;-2.44;100.00;101745.53;5025949;28;20046;-80
2022/02/25 00:10:13;;;;;;;135.73;100.07;;;;;;;-2.61;100.00;101744.78;5026154;28;20053;-80
2022/02/25 00:12:40;;;;;;;129.32;104.47;;;;;;;-2.41;100.00;101745.34;5027342;28;20180;-82
2022/02/25 00:15:07;;;;;;;122.50;96.85;;;;;;;-2.50;100.00;101744.13;5026487;28;20567;-81
2022/02/25 00:17:34;;;;;;;105.30;90.97;;;;;;;-2.34;100.00;101733.59;5024502;28;20053;-80
2022/02/25 00:20:01;;;;;;;100.15;89.63;;;;;;;-2.64;100.00;101742.38;5034843;28;20087;-81
2022/02/25 00:22:28;;;;;;;98.55;88.90;;;;;;;-2.41;100.00;101734.94;5032188;28;20127;-81
2022/02/25 00:24:54;;;;;;;94.05;84.55;;;;;;;-2.70;100.00;101742.75;5030426;28;20123;-79
2022/02/25 00:27:23;;;;;;;93.75;84.95;;;;;;;-2.58;100.00;101744.59;5027840;28;20126;-79
2022/02/25 00:29:49;;;;;;;95.10;86.05;;;;;;;-2.48;100.00;101736.22;5025533;28;20080;-81
2022/02/25 00:32:16;;;;;;;92.25;83.80;;;;;;;-2.33;100.00;101730.03;5023859;28;20475;-79
2022/02/25 00:34:43;;;;;;;90.18;81.88;;;;;;;-2.48;100.00;101728.41;5026582;28;20129;-80
2022/02/25 00:37:10;;;;;;;99.35;89.53;;;;;;;-2.38;100.00;101726.91;5027294;28;20108;-81
2022/02/25 00:39:37;;;;;;;86.88;78.18;;;;;;;-2.21;100.00;101724.09;5027636;28;20117;-80
2022/02/25 00:42:05;;;;;;;87.40;78.85;;;;;;;-2.33;100.00;101717.03;5020972;28;20045;-80
2022/02/25 00:44:33;;;;;;;91.50;82.30;;;;;;;-2.41;100.00;101724.50;5029624;28;20089;-83
2022/02/25 00:47:00;;;;;;;86.50;78.47;;;;;;;-2.53;100.00;101713.13;5022841;28;20058;-80
2022/02/25 00:49:26;;;;;;;96.13;86.25;;;;;;;-2.62;100.00;101714.53;5032785;28;20215;-80
2022/02/25 00:51:53;;;;;;;100.38;90.10;;;;;;;-2.49;100.00;101711.16;5023465;28;20470;-81
2022/02/25 00:54:20;;;;;;;90.72;81.65;;;;;;;-2.72;100.00;101715.19;5024262;28;20053;-81
2022/02/25 00:56:47;;;;;;;83.55;74.45;;;;;;;-2.72;100.00;101708.25;5029671;28;20493;-79
2022/02/25 00:59:14;;;;;;;92.75;82.45;;;;;;;-2.66;100.00;101710.44;5025045;28;20053;-80
2022/02/25 01:01:43;;;;;;;91.63;80.20;;;;;;;-2.66;100.00;101709.59;5024997;28;20049;-79
2022/02/25 01:04:10;;;;;;;92.60;82.90;;;;;;;-2.79;100.00;101712.97;5021229;28;20136;-82
2022/02/25 01:06:37;;;;;;;109.15;94.85;;;;;;;-2.88;100.00;101705.72;5026305;28;20046;-79
2022/02/25 01:09:03;;;;;;;110.30;95.78;;;;;;;-2.82;100.00;101707.94;5025036;28;20057;-82
2022/02/25 01:11:30;;;;;;;111.35;97.90;;;;;;;-2.98;100.00;101699.44;5024730;28;20114;-81
2022/02/25 01:13:57;;;;;;;117.25;95.68;;;;;;;-3.15;100.00;101697.03;5024946;28;20166;-79
2022/02/25 01:16:24;;;;;;;105.57;87.95;;;;;;;-3.14;100.00;101696.13;5025452;28;20050;-79
2022/02/25 01:18:52;;;;;;;99.78;85.93;;;;;;;-2.83;100.00;101693.28;5027608;28;20115;-82
2022/02/25 01:21:18;;;;;;;104.10;75.15;;;;;;;-3.05;100.00;101696.38;5029443;28;20057;-79
2022/02/25 01:23:45;;;;;;;98.65;79.95;;;;;;;-2.91;100.00;101692.91;5019115;28;20050;-79
2022/02/25 01:26:12;;;;;;;94.45;84.32;;;;;;;-2.82;100.00;101705.34;5026303;28;20135;-79
2022/02/25 01:28:39;;;;;;;104.85;91.65;;;;;;;-2.91;100.00;101699.88;5022973;28;20058;-80
2022/02/25 01:31:05;;;;;;;91.28;81.88;;;;;;;-3.02;100.00;101698.78;5022505;28;20108;-81
2022/02/25 01:33:32;;;;;;;102.50;91.22;;;;;;;-2.96;100.00;101707.16;5029175;28;20107;-79
2022/02/25 01:36:01;;;;;;;88.40;79.78;;;;;;;-3.13;100.00;101685.59;5021701;28;20445;-79
2022/02/25 01:38:28;;;;;;;83.10;74.60;;;;;;;-3.08;100.00;101680.13;5024216;28;20119;-79
2022/02/25 01:40:56;;;;;;;86.63;77.95;;;;;;;-3.06;100.00;101675.66;5025150;28;20053;-81
2022/02/25 01:43:23;;;;;;;88.30;79.93;;;;;;;-3.23;100.00;101676.72;5026260;28;20132;-80
2022/02/25 01:45:50;;;;;;;87.10;78.22;;;;;;;-3.06;100.00;101670.47;5026208;28;20049;-78
2022/02/25 01:48:19;;;;;;;91.82;82.68;;;;;;;-3.18;100.00;101666.03;5023976;28;20062;-79
2022/02/25 01:50:46;;;;;;;91.43;82.18;;;;;;;-3.58;100.00;101665.84;5020682;28;20046;-79
2022/02/25 01:53:16;;;;;;;98.25;88.18;;;;;;;-3.49;100.00;101658.31;5023345;28;20045;-81
2022/02/25 01:55:43;;;;;;;89.28;79.60;;;;;;;-3.57;100.00;101654.50;5019876;28;20073;-81
2022/02/25 01:58:10;;;;;;;88.32;77.53;;;;;;;-3.32;100.00;101646.91;5024269;28;20064;-80
2022/02/25 02:00:37;;;;;;;88.50;78.95;;;;;;;-3.31;100.00;101645.97;5023306;28;20425;-80
2022/02/25 02:03:05;;;;;;;90.65;80.90;;;;;;;-3.18;100.00;101643.47;5022761;28;20123;-80
2022/02/25 02:05:33;;;;;;;87.05;77.20;;;;;;;-3.30;100.00;101641.63;5031372;28;20052;-79
2022/02/25 02:08:00;;;;;;;81.80;73.15;;;;;;;-3.72;100.00;101640.69;5022063;28;20534;-81
2022/02/25 02:10:28;;;;;;;79.25;70.53;;;;;;;-3.70;100.00;101646.63;5022279;28;20060;-81
2022/02/25 02:12:55;;;;;;;76.30;68.13;;;;;;;-3.58;100.00;101647.66;5024136;28;20104;-80
2022/02/25 02:15:22;;;;;;;87.97;78.50;;;;;;;-3.48;100.00;101639.22;5024872;28;20050;-80
2022/02/25 02:17:48;;;;;;;90.68;81.72;;;;;;;-3.51;100.00;101646.34;5025300;28;20470;-79
2022/02/25 02:20:15;;;;;;;90.07;80.47;;;;;;;-3.41;100.00;101650.06;5016955;28;20474;-80
2022/02/25 02:22:43;;;;;;;86.07;77.45;;;;;;;-3.39;100.00;101648.19;5023458;28;20050;-81
2022/02/25 02:25:10;;;;;;;86.90;77.88;;;;;;;-3.48;100.00;101649.63;5019797;28;20050;-81
2022/02/25 02:30:21;;;;;;;84.75;76.22;;;;;;;-3.76;100.00;101652.16;5023537;28;20115;-78
2022/02/25 02:32:48;;;;;;;90.07;80.97;;;;;;;-3.51;100.00;101652.41;5023564;28;20050;-79
2022/02/25 02:35:15;;;;;;;92.72;83.00;;;;;;;-3.57;100.00;101647.56;5023869;28;20053;-82
2022/02/25 02:37:43;;;;;;;82.97;71.38;;;;;;;-3.89;100.00;101648.63;5023442;28;20061;-79
2022/02/25 02:40:11;;;;;;;82.40;72.63;;;;;;;-3.67;100.00;101649.03;5023832;28;20057;-79
2022/02/25 02:42:38;;;;;;;79.50;71.28;;;;;;;-3.58;100.00;101648.47;5022791;28;20461;-79
2022/02/25 02:45:06;;;;;;;81.60;73.22;;;;;;;-3.47;100.00;101643.47;5022499;28;20049;-79
2022/02/25 02:47:33;;;;;;;81.80;72.85;;;;;;;-3.60;100.00;101639.09;5026413;28;20501;-81
2022/02/25 02:49:59;;;;;;;85.57;75.78;;;;;;;-4.01;100.00;101639.78;5015567;28;20111;-81
2022/02/25 02:52:26;;;;;;;85.20;76.00;;;;;;;-4.21;100.00;101633.97;5023818;28;20475;-81
2022/02/25 02:54:54;;;;;;;95.53;85.32;;;;;;;-3.84;100.00;101634.47;5025072;28;20049;-79
2022/02/25 02:57:23;;;;;;;102.97;92.85;;;;;;;-3.97;100.00;101636.91;5022038;28;20046;-80
2022/02/25 02:59:50;;;;;;;86.90;77.35;;;;;;;-3.98;100.00;101632.66;5021772;28;20046;-80
2022/02/25 03:02:17;;;;;;;92.30;82.57;;;;;;;-4.15;100.00;101628.44;5149682;22;20835;-79
2022/02/25 03:04:44;;;;;;;92.20;82.32;;;;;;;-3.94;100.00;101622.94;5043190;28;20465;-80
2022/02/25 03:07:11;;;;;;;88.13;78.85;;;;;;;-4.12;100.00;101619.66;5042834;28;20127;-79
2022/02/25 03:09:39;;;;;;;91.85;82.78;;;;;;;-3.74;100.00;101620.00;5043136;28;20128;-78
2022/02/25 03:12:09;;;;;;;88.00;79.18;;;;;;;-3.65;100.00;101623.81;5040614;28;20396;-78
2022/02/25 03:14:36;;;;;;;81.97;73.50;;;;;;;-3.65;100.00;101626.41;5044343;28;20071;-81
2022/02/25 03:17:03;;;;;;;73.95;66.65;;;;;;;-3.83;100.00;101625.75;5043170;28;20103;-80
2022/02/25 03:19:30;;;;;;;73.85;67.28;;;;;;;-4.20;100.00;101621.88;5043969;28;20114;-79
2022/02/25 03:21:56;;;;;;;78.75;71.70;;;;;;;-4.20;100.00;101621.88;5044684;28;20056;-82
2022/02/25 03:24:24;;;;;;;77.90;70.93;;;;;;;-3.88;100.00;101630.34;5046658;28;20049;-80
2022/02/25 03:26:51;;;;;;;73.57;66.20;;;;;;;-3.90;100.00;101627.03;5042232;28;20112;-80
2022/02/25 03:29:19;;;;;;;69.28;62.70;;;;;;;-4.10;100.00;101629.94;5043018;28;20119;-78
2022/02/25 03:31:46;;;;;;;73.38;66.35;;;;;;;-4.38;100.00;101622.00;5043550;28;20045;-78
2022/02/25 03:34:12;;;;;;;85.45;77.35;;;;;;;-3.97;100.00;101626.53;5044122;28;20108;-79
2022/02/25 03:36:39;;;;;;;91.15;82.20;;;;;;;-3.93;100.00;101622.84;5043566;28;20060;-79
2022/02/25 03:39:06;;;;;;;81.95;73.53;;;;;;;-3.98;100.00;101624.03;5039141;28;20068;-80
2022/02/25 03:41:33;;;;;;;83.82;74.63;;;;;;;-4.00;100.00;101629.31;5042898;28;20067;-79
2022/02/25 03:44:00;;;;;;;81.15;72.47;;;;;;;-3.97;100.00;101623.13;5044885;28;20519;-80
2022/02/25 03:46:28;;;;;;;83.28;72.55;;;;;;;-4.01;100.00;101616.44;5043259;28;20106;-79
2022/02/25 03:48:55;;;;;;;94.47;84.88;;;;;;;-3.96;100.00;101623.03;5045428;28;20102;-79
2022/02/25 03:51:23;;;;;;;83.38;75.35;;;;;;;-4.50;100.00;101614.91;5044032;28;20079;-79
2022/02/25 03:53:50;;;;;;;81.63;73.63;;;;;;;-4.18;100.00;101623.44;5044257;28;20053;-81
2022/02/25 03:56:17;;;;;;;76.22;68.63;;;;;;;-4.08;100.00;101610.78;5046779;28;20052;-81
2022/02/25 03:58:45;;;;;;;79.88;71.75;;;;;;;-4.01;100.00;101609.47;5042942;28;20126;-78
2022/02/25 04:01:11;;;;;;;79.32;71.45;;;;;;;-4.12;100.00;101603.25;5041245;28;20057;-81
2022/02/25 04:03:40;;;;;;;81.55;73.28;;;;;;;-4.06;100.00;101608.06;5043945;28;20489;-79
2022/02/25 04:06:06;;;;;;;75.28;67.30;;;;;;;-4.51;100.00;101604.59;5045964;28;20478;-79
2022/02/25 04:08:33;;;;;;;73.43;65.70;;;;;;;-4.58;100.00;101608.47;5042878;28;20049;-80
2022/02/25 04:11:00;;;;;;;79.30;71.00;;;;;;;-4.47;100.00;101617.31;5042757;28;20048;-79
2022/02/25 04:13:27;;;;;;;80.40;71.93;;;;;;;-4.35;100.00;101602.81;5044123;28;20053;-81
2022/02/25 04:15:54;;;;;;;82.13;73.68;;;;;;;-4.40;100.00;101612.63;5044312;28;20107;-79
2022/02/25 04:18:20;;;;;;;73.72;65.90;;;;;;;-4.46;100.00;101616.38;5047451;28;20469;-80
2022/02/25 04:20:49;;;;;;;85.20;75.82;;;;;;;-4.59;100.00;101619.78;5052259;28;20126;-80
2022/02/25 04:23:15;;;;;;;101.35;91.53;;;;;;;-4.74;100.00;101629.25;5049156;28;20049;-82
2022/02/25 04:25:42;;;;;;;109.88;99.35;;;;;;;-4.42;100.00;101630.03;5049884;28;20111;-79
2022/02/25 04:28:09;;;;;;;100.90;90.75;;;;;;;-4.33;100.00;101621.72;5042271;28;20053;-79
2022/02/25 04:30:36;;;;;;;93.13;83.90;;;;;;;-4.42;100.00;101622.25;5047548;28;20053;-82
2022/02/25 04:33:02;;;;;;;92.15;80.78;;;;;;;-4.42;100.00;101612.72;5045657;28;20057;-78
2022/02/25 04:35:29;;;;;;;88.10;77.43;;;;;;;-4.35;100.00;101610.59;5045525;28;20048;-79
2022/02/25 04:37:57;;;;;;;85.20;74.10;;;;;;;-4.34;100.00;101614.03;5046757;28;20045;-81
2022/02/25 04:40:25;;;;;;;81.35;72.60;;;;;;;-4.13;100.00;101617.16;5044822;28;20125;-79
2022/02/25 04:42:52;;;;;;;81.40;72.63;;;;;;;-4.79;100.00;101615.69;5044906;28;20063;-82
2022/02/25 04:45:19;;;;;;;87.07;78.03;;;;;;;-4.70;100.00;101610.00;5046577;28;20114;-79
2022/02/25 04:47:46;;;;;;;95.97;84.28;;;;;;;-4.22;100.00;101613.31;5047286;28;20471;-79
2022/02/25 04:50:15;;;;;;;90.45;80.63;;;;;;;-4.37;100.00;101620.22;5037457;28;20527;-78
2022/02/25 04:52:43;;;;;;;88.90;78.65;;;;;;;-4.47;100.00;101619.09;5044524;28;20472;-79
2022/02/25 04:55:13;;;;;;;87.78;78.22;;;;;;;-4.35;100.00;101620.97;5045364;28;20045;-79
2022/02/25 04:57:40;;;;;;;83.20;74.72;;;;;;;-4.59;100.00;101607.66;5044608;28;20053;-79
2022/02/25 05:00:10;;;;;;;83.85;74.82;;;;;;;-4.45;100.00;101604.25;5044251;28;20106;-79
2022/02/25 05:02:38;;;;;;;77.90;69.57;;;;;;;-4.52;100.00;101600.34;5041961;28;20115;-80
2022/02/25 05:05:05;;;;;;;85.22;76.22;;;;;;;-4.60;100.00;101600.78;5037710;28;20107;-80
2022/02/25 05:07:32;;;;;;;81.00;72.53;;;;;;;-4.72;100.00;101601.47;5044659;28;20049;-79
2022/02/25 05:09:59;;;;;;;83.45;74.30;;;;;;;-4.98;100.00;101605.50;4347254;28;10000748;-81
2022/02/25 05:12:27;;;;;;;77.22;69.10;;;;;;;-4.84;100.00;101609.00;5045780;28;20119;-80
2022/02/25 05:20:26;;;;;;;85.97;75.25;;;;;;;-4.73;100.00;101603.22;5041503;28;20446;-79
2022/02/25 05:22:54;;;;;;;85.35;70.60;;;;;;;-4.94;100.00;101614.78;5039174;28;20045;-79
2022/02/25 05:25:22;;;;;;;86.57;74.00;;;;;;;-4.74;100.00;101611.94;5040558;28;20484;-79
2022/02/25 05:27:50;;;;;;;83.53;71.80;;;;;;;-4.25;100.00;101608.31;5045271;28;20045;-79
2022/02/25 05:30:17;;;;;;;75.57;67.50;;;;;;;-4.34;100.00;101611.44;5044697;28;20397;-80
2022/02/25 05:32:44;;;;;;;65.47;57.30;;;;;;;-4.03;100.00;101618.28;5041158;28;20118;-80
2022/02/25 05:35:12;;;;;;;66.07;54.85;;;;;;;-3.84;100.00;101613.69;5037520;28;20037;-78
2022/02/25 05:37:40;;;;;;;71.22;57.30;;;;;;;-3.72;100.00;101618.16;5040555;28;20408;-79
2022/02/25 05:40:11;;;;;;;66.13;56.15;;;;;;;-3.52;100.00;101610.91;5041803;28;20045;-79
2022/02/25 05:42:39;;;;;;;77.68;69.20;;;;;;;-3.45;100.00;101612.22;5048884;28;20057;-78
2022/02/25 05:45:08;;;;;;;74.07;66.43;;;;;;;-3.49;100.00;101608.13;5045913;28;20457;-83
2022/02/25 05:47:35;;;;;;;71.95;64.05;;;;;;;-3.16;100.00;101599.19;4999686;28;20049;-79
2022/02/25 05:50:03;;;;;;;73.97;66.05;;;;;;;-2.87;100.00;101594.78;5034381;28;20130;-80
2022/02/25 05:52:30;;;;;;;76.78;68.65;;;;;;;-3.06;100.00;101593.31;5034932;28;20049;-80
2022/02/25 05:54:57;;;;;;;71.75;64.55;;;;;;;-2.80;100.00;101591.69;5048440;28;20469;-80
2022/02/25 05:57:24;;;;;;;78.97;71.35;;;;;;;-2.62;100.00;101594.03;5054613;28;20110;-80
2022/02/25 05:59:50;;;;;;;74.40;66.82;;;;;;;-2.63;100.00;101593.22;5053804;28;20118;-80
2022/02/25 06:02:18;;;;;;;81.35;73.60;;;;;;;-2.62;100.00;101597.47;5053677;28;20114;-78
2022/02/25 06:04:45;;;;;;;83.68;74.97;;;;;;;-2.33;100.00;101594.72;5054164;28;20153;-79
2022/02/25 06:07:12;;;;;;;80.90;72.53;;;;;;;-2.22;100.00;101596.63;5054231;28;20114;-80
2022/02/25 06:09:39;;;;;;;92.63;83.57;;;;;;;5.04;100.00;101610.97;5054523;28;20455;-79
2022/02/25 06:12:06;;;;;;;85.78;77.53;;;;;;;5.74;100.00;101597.13;5055919;28;20048;-81
2022/02/25 06:14:35;;;;;;;286.13;110.93;;;;;;;6.36;100.00;101584.75;5054591;28;20049;-80
2022/02/25 06:17:02;;;;;;;94.22;86.65;;;;;;;1.06;100.00;101570.88;5057784;28;20049;-78
2022/02/25 06:19:30;;;;;;;99.03;90.65;;;;;;;-0.91;100.00;101573.66;5055659;28;20501;-78
2022/02/25 06:21:57;;;;;;;98.53;88.70;;;;;;;-1.19;100.00;101572.19;5055732;28;20049;-79
2022/02/25 06:24:25;;;;;;;97.72;88.20;;;;;;;-1.21;100.00;101581.88;5055951;28;20479;-80
2022/02/25 06:26:52;;;;;;;98.13;87.72;;;;;;;-1.18;100.00;101577.31;5056654;28;20366;-80
2022/02/25 06:29:18;;;;;;;104.15;87.47;;;;;;;-0.89;100.00;101584.81;5056410;28;20531;-79
2022/02/25 06:31:45;;;;;;;107.40;90.30;;;;;;;-0.84;100.00;101582.72;5057063;28;20060;-81
2022/02/25 06:34:12;;;;;;;118.07;100.93;;;;;;;-0.76;100.00;101588.19;5057038;28;20088;-78
2022/02/25 06:36:40;;;;;;;146.98;115.53;;;;;;;-0.34;100.00;101590.41;5057910;28;20049;-80
2022/02/25 06:39:07;;;;;;;138.65;110.15;;;;;;;-0.58;100.00;101591.25;5056149;28;20056;-79
2022/02/25 06:41:34;;;;;;;104.85;91.68;;;;;;;-0.20;100.00;101595.44;5056850;28;20048;-78
2022/02/25 06:44:01;;;;;;;91.63;82.53;;;;;;;-0.05;100.00;101601.28;5058065;28;20053;-81
2022/02/25 06:46:28;;;;;;;88.82;80.00;;;;;;;0.07;100.00;101594.31;5057487;28;20056;-79
2022/02/25 06:48:55;;;;;;;89.32;80.35;;;;;;;0.45;100.00;101589.63;5057523;28;20447;-79
2022/02/25 06:51:22;;;;;;;88.32;80.68;;;;;;;0.42;100.00;101592.47;5056680;28;20458;-81
2022/02/25 06:53:50;;;;;;;97.40;89.03;;;;;;;1.01;100.00;101583.47;5056813;28;20118;-81
2022/02/25 06:56:19;;;;;;;97.85;89.10;;;;;;;0.83;100.00;101596.22;5056785;28;20409;-79
2022/02/25 06:58:45;;;;;;;85.65;78.25;;;;;;;0.65;100.00;101598.50;5057704;28;20045;-80
2022/02/25 07:01:12;;;;;;;91.57;83.93;;;;;;;1.18;100.00;101596.97;5056706;28;20049;-80
2022/02/25 07:03:39;;;;;;;84.25;76.57;;;;;;;1.05;100.00;101590.13;5057185;28;20102;-79
2022/02/25 07:06:06;;;;;;;77.20;70.30;;;;;;;1.27;100.00;101583.16;5057403;28;20138;-81
2022/02/25 07:08:33;;;;;;;82.85;75.20;;;;;;;1.78;100.00;101595.56;5057445;28;20554;-80
2022/02/25 07:11:01;;;;;;;81.18;74.68;;;;;;;1.66;100.00;101586.09;5057651;28;20069;-79
2022/02/25 07:13:28;;;;;;;83.78;76.78;;;;;;;2.08;100.00;101586.09;5057920;28;20465;-79
2022/02/25 07:15:56;;;;;;;88.72;81.22;;;;;;;2.59;100.00;101593.94;5058279;28;20049;-81
2022/02/25 07:18:22;;;;;;;85.32;78.53;;;;;;;2.59;100.00;101586.06;5057883;28;20465;-78
2022/02/25 07:20:49;;;;;;;76.35;70.30;;;;;;;2.94;100.00;101579.56;5057348;28;20427;-82
2022/02/25 07:23:16;;;;;;;74.60;68.45;;;;;;;3.79;100.00;101588.59;5057761;28;20057;-81
2022/02/25 07:25:44;;;;;;;72.15;66.30;;;;;;;3.59;100.00;101580.69;5058310;28;20547;-79
2022/02/25 07:28:12;;;;;;;84.43;77.20;;;;;;;4.54;100.00;101579.78;5057847;28;20060;-78
2022/02/25 07:30:39;;;;;;;78.85;72.53;;;;;;;4.57;100.00;101578.69;5059003;28;20053;-81
2022/02/25 07:33:06;;;;;;;82.43;76.13;;;;;;;4.17;100.00;101577.13;5059421;28;20055;-79
2022/02/25 07:35:33;;;;;;;81.25;74.78;;;;;;;5.04;100.00;101568.84;5058906;28;20060;-79
2022/02/25 07:38:01;;;;;;;73.97;67.38;;;;;;;5.28;100.00;101555.09;5059641;28;20052;-79
2022/02/25 07:40:29;;;;;;;71.13;65.43;;;;;;;5.25;100.00;101552.75;5058580;28;20114;-79
2022/02/25 07:42:56;;;;;;;76.35;70.18;;;;;;;6.35;100.00;101561.94;5059442;28;20473;-80
2022/02/25 07:45:25;;;;;;;78.85;72.45;;;;;;;5.74;100.00;101563.69;5060692;28;20049;-79
2022/02/25 07:47:52;;;;;;;83.00;76.55;;;;;;;7.11;100.00;101562.91;5060067;28;20045;-82
2022/02/25 07:50:19;;;;;;;82.68;76.53;;;;;;;6.77;100.00;101560.31;5061186;28;20065;-80
2022/02/25 07:52:47;;;;;;;74.32;68.82;;;;;;;6.86;100.00;101564.63;5064283;28;20053;-81
2022/02/25 07:55:15;;;;;;;66.45;61.53;;;;;;;6.61;100.00;101567.19;5065196;28;20048;-81
2022/02/25 07:57:42;;;;;;;74.07;68.03;;;;;;;7.55;100.00;101562.59;5065555;28;20083;-82
2022/02/25 08:00:15;;;;;;;76.18;70.60;;;;;;;7.72;100.00;101568.72;5065947;28;20122;-80
2022/02/25 08:02:44;;;;;;;82.20;76.35;;;;;;;7.99;100.00;101570.19;5064131;28;20143;-80
2022/02/25 08:05:12;;;;;;;80.68;74.93;;;;;;;7.96;100.00;101562.56;5064980;28;20110;-78
2022/02/25 08:07:39;;;;;;;76.13;70.40;;;;;;;6.13;100.00;101562.50;5065806;28;20126;-79
2022/02/25 08:10:07;;;;;;;76.75;71.07;;;;;;;8.48;100.00;101562.13;5064260;28;20047;-80
2022/02/25 08:12:33;;;;;;;69.43;64.35;;;;;;;8.93;100.00;101558.75;5065204;28;20053;-80
2022/02/25 08:15:00;;;;;;;74.82;69.53;;;;;;;9.16;100.00;101563.25;5066280;28;20083;-80
2022/02/25 08:17:27;;;;;;;82.70;76.80;;;;;;;8.22;100.00;101557.03;5064988;28;20479;-78
2022/02/25 08:19:55;;;;;;;77.32;71.75;;;;;;;9.59;100.00;101555.63;5065512;28;20091;-81
2022/02/25 08:22:24;;;;;;;80.13;74.43;;;;;;;10.09;100.00;101549.69;5065438;28;20075;-81
2022/02/25 08:24:51;;;;;;;78.40;72.78;;;;;;;9.43;100.00;101545.16;5066909;28;20049;-79
2022/02/25 08:27:19;;;;;;;79.07;73.10;;;;;;;7.36;100.00;101545.25;5066297;28;20461;-81
2022/02/25 08:29:46;;;;;;;91.82;85.72;;;;;;;7.87;100.00;101542.41;5066383;28;20053;-79
2022/02/25 08:32:13;;;;;;;89.68;83.22;;;;;;;10.29;100.00;101538.56;5066179;28;20475;-79
2022/02/25 08:34:40;;;;;;;78.60;73.00;;;;;;;9.90;100.00;101541.44;5066802;28;20473;-80
2022/02/25 08:37:09;;;;;;;79.68;73.70;;;;;;;9.38;100.00;101537.75;5066949;28;20134;-78
2022/02/25 08:39:36;;;;;;;76.75;71.50;;;;;;;9.53;100.00;101541.28;5068000;28;20550;-81
2022/02/25 08:42:03;;;;;;;76.93;71.80;;;;;;;11.63;100.00;101537.13;5065969;28;20041;-79
2022/02/25 08:44:30;;;;;;;87.72;81.82;;;;;;;12.73;100.00;101530.16;5067346;28;20041;-81
2022/02/25 08:46:57;;;;;;;82.70;76.75;;;;;;;10.91;100.00;101540.72;5066713;28;20044;-81
2022/02/25 08:49:24;;;;;;;71.22;66.03;;;;;;;10.53;100.00;101543.56;5066712;28;20049;-80
2022/02/25 08:51:52;;;;;;;70.78;65.68;;;;;;;9.46;100.00;101542.16;5064013;28;20432;-81
2022/02/25 08:54:39;;;;;;;64.18;59.47;;;;;;;11.13;100.00;101535.44;5067995;28;20053;-82
2022/02/25 08:57:07;;;;;;;82.68;77.00;;;;;;;9.36;100.00;101535.28;5066952;28;20060;-80
2022/02/25 08:59:34;;;;;;;70.63;65.50;;;;;;;8.73;100.00;101532.88;5066965;28;20079;-80
2022/02/25 09:02:01;;;;;;;67.97;63.28;;;;;;;8.58;100.00;101527.50;5066649;28;20049;-82
2022/02/25 09:04:28;;;;;;;69.90;64.60;;;;;;;8.35;100.00;101535.31;5066079;28;20075;-79
2022/02/25 09:06:54;;;;;;;86.65;79.97;;;;;;;9.10;100.00;101524.19;5066236;28;20045;-80
2022/02/25 09:09:22;;;;;;;87.70;82.00;;;;;;;9.91;100.00;101527.97;5066468;28;20086;-82
2022/02/25 09:11:50;;;;;;;97.53;91.10;;;;;;;9.83;100.00;101518.28;5065614;28;20219;-78
2022/02/25 09:14:18;;;;;;;83.13;77.63;;;;;;;8.83;100.00;101521.06;5065619;28;20057;-80
2022/02/25 09:16:51;;;;;;;82.13;76.05;;;;;;;9.48;100.00;101522.44;5066296;28;20048;-81
2022/02/25 09:19:18;;;;;;;85.05;78.93;;;;;;;10.11;100.00;101519.50;5067104;28;20052;-81
2022/02/25 09:21:44;;;;;;;92.13;86.10;;;;;;;10.51;100.00;101523.53;5066146;28;20083;-82
2022/02/25 09:24:12;;;;;;;100.47;93.97;;;;;;;11.66;96.06;101519.94;5066121;28;20056;-80
2022/02/25 09:26:39;;;;;;;84.30;78.82;;;;;;;10.50;100.00;101514.72;5064404;28;20057;-79
2022/02/25 09:29:07;;;;;;;76.45;71.35;;;;;;;10.92;100.00;101520.28;5067517;28;20041;-81
2022/02/25 09:31:34;;;;;;;86.68;80.88;;;;;;;11.67;92.93;101511.75;5065029;28;20049;-77
2022/02/25 09:34:01;;;;;;;87.65;81.95;;;;;;;12.57;89.82;101504.69;5065649;28;20071;-78
2022/02/25 09:36:28;;;;;;;85.32;79.55;;;;;;;10.49;100.00;101505.09;5065403;28;20118;-81
2022/02/25 09:38:54;;;;;;;78.70;73.50;;;;;;;10.29;100.00;101493.44;5064184;28;20049;-79
2022/02/25 09:41:21;;;;;;;62.35;57.90;;;;;;;10.65;100.00;101498.75;5065322;28;20110;-80
2022/02/25 09:43:48;;;;;;;63.53;58.92;;;;;;;10.93;100.00;101490.88;5065264;28;20041;-78
2022/02/25 09:46:18;;;;;;;71.13;66.22;;;;;;;9.77;100.00;101489.00;5063050;28;20515;-81
2022/02/25 09:48:53;;;;;;;81.13;75.72;;;;;;;9.63;100.00;101480.03;5065200;28;20127;-83
2022/02/25 09:51:20;;;;;;;98.53;92.28;;;;;;;10.57;100.00;101487.44;5061158;28;20052;-77
2022/02/25 09:53:46;;;;;;;92.28;86.40;;;;;;;11.96;84.60;101487.84;5062161;28;20466;-81
2022/02/25 09:56:13;;;;;;;81.40;76.22;;;;;;;11.60;90.90;101481.63;5063203;28;20075;-81
2022/02/25 09:58:43;;;;;;;78.75;73.43;;;;;;;11.49;86.68;101471.50;5063072;28;20126;-82
2022/02/25 10:01:10;;;;;;;94.22;88.00;;;;;;;12.15;84.03;101466.63;5064306;28;20481;-81
2022/02/25 10:03:39;;;;;;;87.53;81.68;;;;;;;10.48;84.35;101462.81;5064383;28;20463;-81
2022/02/25 10:06:07;;;;;;;89.47;83.43;;;;;;;9.75;82.00;101467.13;5064202;28;20048;-80
2022/02/25 10:08:35;;;;;;;91.15;85.10;;;;;;;11.02;78.36;101459.69;5065774;28;20095;-81
2022/02/25 10:11:03;;;;;;;88.95;83.05;;;;;;;12.40;72.24;101460.78;5064529;28;20083;-80
2022/02/25 10:13:31;;;;;;;90.30;84.57;;;;;;;11.12;74.45;101454.03;5063032;28;20080;-80
2022/02/25 10:16:03;;;;;;;88.15;82.30;;;;;;;10.91;90.78;101445.06;5066306;28;20041;-81
2022/02/25 10:18:32;;;;;;;72.82;67.72;;;;;;;11.73;85.19;101440.97;5064170;28;20424;-81
2022/02/25 10:21:07;;;;;;;78.00;72.28;;;;;;;13.58;78.87;101431.78;5064124;28;20048;-81
2022/02/25 10:23:35;;;;;;;73.97;68.47;;;;;;;13.93;77.79;101434.97;5063955;28;20049;-80
2022/02/25 10:26:15;;;;;;;76.47;70.72;;;;;;;12.02;81.14;101431.94;5063020;28;20539;-81
2022/02/25 10:28:44;;;;;;;79.78;73.90;;;;;;;11.29;79.26;101430.66;5064238;28;20059;-79
2022/02/25 10:31:26;;;;;;;81.50;75.70;;;;;;;11.60;86.35;101428.41;5062944;28;20083;-78
2022/02/25 10:34:03;;;;;;;83.30;77.47;;;;;;;11.52;74.40;101414.44;5065027;28;20463;-78
2022/02/25 10:36:44;;;;;;;86.15;80.15;;;;;;;13.95;75.09;101416.91;5064580;28;20041;-78
2022/02/25 10:39:12;;;;;;;89.15;82.95;;;;;;;13.51;72.18;101413.09;5067336;28;20076;-79
2022/02/25 10:41:39;;;;;;;88.72;82.72;;;;;;;13.17;68.41;101411.47;5065147;28;20524;-78
2022/02/25 10:44:06;;;;;;;89.30;83.40;;;;;;;13.52;71.35;101405.91;5062855;28;20111;-82
2022/02/25 10:46:33;;;;;;;87.38;81.28;;;;;;;14.00;67.01;101402.09;5066143;28;20053;-80
2022/02/25 10:49:07;;;;;;;87.63;81.63;;;;;;;13.02;63.29;101395.69;5064633;28;20064;-80
2022/02/25 10:51:37;;;;;;;87.90;81.55;;;;;;;10.76;71.07;101389.31;5062074;28;20095;-80
2022/02/25 10:54:05;;;;;;;86.40;80.70;;;;;;;11.80;75.78;101385.97;5063970;28;20059;-80
2022/02/25 10:56:44;;;;;;;82.45;76.32;;;;;;;11.40;74.50;101376.91;5066819;28;20091;-80
2022/02/25 10:59:12;;;;;;;82.95;76.78;;;;;;;12.99;70.01;101379.28;5063444;28;20048;-80
2022/02/25 11:01:40;;;;;;;82.53;76.55;;;;;;;12.45;74.51;101366.94;5064755;28;20063;-82
2022/02/25 11:04:09;;;;;;;90.60;83.97;;;;;;;12.26;78.82;101365.88;5064877;28;20465;-79
2022/02/25 11:06:37;;;;;;;84.82;78.93;;;;;;;12.39;78.36;101363.22;5062338;28;20075;-80
2022/02/25 11:09:05;;;;;;;81.65;75.50;;;;;;;12.01;81.62;101362.91;5063634;28;20052;-78
2022/02/25 11:11:34;;;;;;;86.05;79.70;;;;;;;13.54;71.84;101352.34;5064290;28;20075;-81